createdAt,value
2023-05-11T00:00:44.255Z,0.00
2023-05-11T00:01:44.301Z,0.00
2023-05-11T00:02:44.349Z,0.00
2023-05-11T00:03:44.357Z,0.00
2023-05-11T00:04:44.342Z,0.00
2023-05-11T00:05:44.225Z,0.00
2023-05-11T00:06:44.203Z,0.00
2023-05-11T00:07:45.232Z,0.00
2023-05-11T00:08:44.183Z,0.00
2023-05-11T00:09:44.191Z,0.00
2023-05-11T00:10:44.160Z,0.00
2023-05-11T00:11:44.191Z,0.00
2023-05-11T00:12:44.139Z,0.00
2023-05-11T00:13:44.150Z,0.00
2023-05-11T00:14:44.189Z,0.00
2023-05-11T00:15:44.700Z,0.00
2023-05-11T00:16:44.113Z,0.00
2023-05-11T00:17:44.699Z,0.00
2023-05-11T00:18:44.140Z,0.00
2023-05-11T00:19:44.125Z,0.00
2023-05-11T00:20:44.129Z,0.00
2023-05-11T00:21:44.083Z,0.00
2023-05-11T00:22:44.967Z,0.00
2023-05-11T00:23:45.071Z,0.00
2023-05-11T00:24:44.053Z,0.00
2023-05-11T00:25:44.171Z,0.00
2023-05-11T00:26:43.988Z,0.00
2023-05-11T00:27:43.988Z,0.00
2023-05-11T00:28:43.982Z,0.00
2023-05-11T00:29:44.075Z,0.00
2023-05-11T00:30:45.038Z,0.00
2023-05-11T00:31:43.977Z,0.00
2023-05-11T00:32:43.987Z,0.00
2023-05-11T00:33:43.926Z,0.00
2023-05-11T00:34:43.921Z,0.00
2023-05-11T00:35:43.930Z,0.00
2023-05-11T00:36:43.898Z,0.00
2023-05-11T00:37:43.944Z,0.00
2023-05-11T00:38:43.901Z,0.00
2023-05-11T00:39:43.868Z,0.00
2023-05-11T00:40:43.884Z,0.00
2023-05-11T00:41:43.875Z,0.00
2023-05-11T00:42:43.832Z,0.00
2023-05-11T00:43:43.903Z,0.00
2023-05-11T00:44:43.813Z,0.00
2023-05-11T00:45:43.796Z,0.00
2023-05-11T00:46:43.830Z,0.00
2023-05-11T00:47:43.838Z,0.00
2023-05-11T00:48:43.921Z,0.00
2023-05-11T00:49:43.765Z,0.00
2023-05-11T00:50:43.854Z,0.00
2023-05-11T00:51:43.812Z,0.00
2023-05-11T00:52:43.734Z,0.00
2023-05-11T00:53:43.711Z,0.00
2023-05-11T00:54:43.748Z,0.00
2023-05-11T00:55:43.703Z,0.00
2023-05-11T00:56:43.708Z,0.00
2023-05-11T00:57:43.740Z,0.00
2023-05-11T00:58:43.705Z,0.00
2023-05-11T00:59:43.692Z,0.00
2023-05-11T01:00:43.712Z,0.00
2023-05-11T01:01:43.665Z,0.00
2023-05-11T01:02:43.706Z,0.00
2023-05-11T01:03:43.614Z,0.00
2023-05-11T01:04:43.664Z,0.00
2023-05-11T01:05:43.606Z,0.00
2023-05-11T01:06:43.610Z,0.00
2023-05-11T01:07:43.623Z,0.00
2023-05-11T01:08:44.539Z,0.00
2023-05-11T01:09:43.568Z,0.00
2023-05-11T01:10:43.666Z,0.00
2023-05-11T01:11:43.597Z,0.00
2023-05-11T01:12:43.565Z,0.00
2023-05-11T01:13:43.576Z,0.00
2023-05-11T01:14:43.510Z,0.00
2023-05-11T01:15:43.517Z,0.00
2023-05-11T01:16:43.533Z,0.00
2023-05-11T01:17:43.511Z,0.00
2023-05-11T01:18:43.566Z,0.00
2023-05-11T01:19:43.502Z,0.00
2023-05-11T01:20:43.497Z,0.00
2023-05-11T01:21:43.490Z,0.00
2023-05-11T01:22:43.444Z,0.00
2023-05-11T01:23:43.460Z,0.00
2023-05-11T01:24:43.435Z,0.00
2023-05-11T01:25:43.436Z,0.00
2023-05-11T01:26:43.394Z,0.00
2023-05-11T01:27:43.373Z,0.00
2023-05-11T01:28:43.392Z,0.00
2023-05-11T01:29:43.397Z,0.00
2023-05-11T01:30:43.399Z,0.00
2023-05-11T01:31:43.454Z,0.00
2023-05-11T01:32:43.349Z,0.00
2023-05-11T01:33:43.320Z,0.00
2023-05-11T01:34:43.345Z,0.00
2023-05-11T01:35:43.344Z,0.00
2023-05-11T01:36:43.331Z,0.00
2023-05-11T01:37:43.311Z,0.00
2023-05-11T01:38:43.298Z,0.00
2023-05-11T01:39:43.283Z,0.00
2023-05-11T01:40:43.245Z,0.00
2023-05-11T01:41:43.242Z,0.00
2023-05-11T01:42:43.255Z,0.00
2023-05-11T01:43:43.224Z,0.00
2023-05-11T01:44:43.251Z,0.00
2023-05-11T01:45:43.273Z,0.00
2023-05-11T01:46:43.188Z,0.00
2023-05-11T01:47:43.224Z,0.00
2023-05-11T01:48:43.180Z,0.00
2023-05-11T01:49:43.153Z,0.00
2023-05-11T01:50:44.012Z,0.00
2023-05-11T01:51:43.129Z,0.00
2023-05-11T01:52:43.160Z,0.00
2023-05-11T01:53:43.210Z,0.00
2023-05-11T01:54:43.134Z,0.00
2023-05-11T01:55:43.147Z,0.00
2023-05-11T01:56:43.124Z,0.00
2023-05-11T01:57:43.048Z,0.00
2023-05-11T01:58:43.086Z,0.00
2023-05-11T01:59:43.100Z,0.00
2023-05-11T02:00:43.064Z,0.00
2023-05-11T02:01:43.104Z,0.00
2023-05-11T02:02:43.063Z,0.00
2023-05-11T02:03:43.037Z,0.00
2023-05-11T02:04:43.076Z,0.00
2023-05-11T02:05:42.994Z,0.00
2023-05-11T02:06:43.031Z,0.00
2023-05-11T02:07:43.008Z,0.00
2023-05-11T02:08:42.966Z,0.00
2023-05-11T02:09:42.969Z,0.00
2023-05-11T02:10:42.958Z,0.00
2023-05-11T02:11:42.945Z,0.00
2023-05-11T02:12:42.912Z,0.00
2023-05-11T02:13:42.932Z,0.00
2023-05-11T02:14:43.026Z,0.00
2023-05-11T02:15:42.984Z,0.00
2023-05-11T02:16:42.869Z,0.00
2023-05-11T02:17:42.907Z,0.00
2023-05-11T02:18:42.907Z,0.00
2023-05-11T02:19:43.010Z,0.00
2023-05-11T02:20:42.847Z,0.00
2023-05-11T02:21:42.920Z,0.00
2023-05-11T02:22:42.880Z,0.00
2023-05-11T02:23:42.803Z,0.00
2023-05-11T02:24:42.902Z,0.00
2023-05-11T02:25:42.845Z,0.00
2023-05-11T02:26:42.838Z,0.00
2023-05-11T02:27:43.180Z,0.00
2023-05-11T02:28:42.847Z,0.00
2023-05-11T02:29:42.812Z,0.00
2023-05-11T02:30:42.889Z,0.00
2023-05-11T02:31:42.891Z,0.00
2023-05-11T02:32:42.820Z,0.00
2023-05-11T02:33:42.810Z,0.00
2023-05-11T02:34:42.734Z,0.00
2023-05-11T02:35:42.722Z,0.00
2023-05-11T02:36:42.753Z,0.00
2023-05-11T02:37:42.739Z,0.00
2023-05-11T02:38:42.720Z,0.00
2023-05-11T02:39:42.715Z,0.00
2023-05-11T02:40:43.621Z,0.00
2023-05-11T02:41:42.691Z,0.00
2023-05-11T02:42:43.556Z,0.00
2023-05-11T02:43:42.654Z,0.00
2023-05-11T02:44:42.623Z,0.00
2023-05-11T02:45:42.681Z,0.00
2023-05-11T02:46:42.673Z,0.00
2023-05-11T02:47:42.686Z,0.00
2023-05-11T02:48:42.706Z,0.00
2023-05-11T02:49:42.620Z,0.00
2023-05-11T02:50:42.602Z,0.00
2023-05-11T02:51:42.586Z,0.00
2023-05-11T02:52:42.596Z,0.00
2023-05-11T02:53:42.527Z,0.00
2023-05-11T02:55:14.940Z,0.00
2023-05-11T02:55:42.557Z,0.00
2023-05-11T02:56:42.521Z,0.00
2023-05-11T02:57:42.635Z,0.00
2023-05-11T02:58:42.507Z,0.00
2023-05-11T02:59:42.535Z,0.00
2023-05-11T03:00:42.616Z,0.00
2023-05-11T03:01:42.640Z,0.00
2023-05-11T03:02:42.545Z,0.00
2023-05-11T03:03:42.594Z,0.00
2023-05-11T03:04:42.436Z,0.00
2023-05-11T03:05:42.585Z,0.00
2023-05-11T03:06:42.425Z,4.00
2023-05-11T03:07:42.459Z,4.00
2023-05-11T03:08:42.471Z,0.00
2023-05-11T03:09:43.044Z,0.00
2023-05-11T03:10:42.464Z,4.00
2023-05-11T03:11:42.402Z,4.00
2023-05-11T03:12:42.391Z,4.00
2023-05-11T03:13:42.348Z,4.00
2023-05-11T03:14:42.372Z,4.00
2023-05-11T03:15:42.342Z,4.00
2023-05-11T03:16:42.402Z,8.00
2023-05-11T03:17:42.294Z,4.00
2023-05-11T03:18:42.301Z,8.00
2023-05-11T03:19:42.328Z,8.00
2023-05-11T03:20:42.347Z,12.00
2023-05-11T03:21:42.205Z,12.00
2023-05-11T03:22:42.243Z,12.00
2023-05-11T03:23:42.279Z,16.00
2023-05-11T03:24:42.583Z,16.00
2023-05-11T03:25:42.249Z,20.00
2023-05-11T03:26:42.210Z,24.00
2023-05-11T03:27:42.201Z,28.00
2023-05-11T03:28:42.236Z,28.00
2023-05-11T03:29:42.182Z,32.00
2023-05-11T03:30:42.290Z,36.00
2023-05-11T03:31:42.259Z,40.00
2023-05-11T03:32:42.233Z,40.00
2023-05-11T03:33:42.136Z,44.00
2023-05-11T03:34:42.246Z,48.00
2023-05-11T03:35:42.192Z,52.00
2023-05-11T03:36:42.177Z,56.00
2023-05-11T03:37:42.189Z,64.00
2023-05-11T03:38:42.122Z,68.00
2023-05-11T03:39:42.136Z,72.00
2023-05-11T03:40:42.086Z,76.00
2023-05-11T03:41:42.120Z,76.00
2023-05-11T03:42:42.089Z,80.00
2023-05-11T03:43:42.098Z,80.00
2023-05-11T03:44:42.105Z,88.00
2023-05-11T03:45:42.062Z,92.00
2023-05-11T03:46:42.699Z,96.00
2023-05-11T03:47:42.033Z,96.00
2023-05-11T03:48:43.020Z,100.00
2023-05-11T03:49:42.009Z,104.00
2023-05-11T03:50:41.986Z,108.00
2023-05-11T03:51:42.018Z,108.00
2023-05-11T03:52:41.939Z,116.00
2023-05-11T03:53:41.996Z,116.00
2023-05-11T03:54:41.969Z,120.00
2023-05-11T03:55:41.923Z,124.00
2023-05-11T03:56:41.993Z,132.00
2023-05-11T03:57:41.950Z,140.00
2023-05-11T03:58:41.926Z,144.00
2023-05-11T03:59:42.885Z,148.00
2023-05-11T04:00:41.974Z,156.00
2023-05-11T04:01:41.878Z,160.00
2023-05-11T04:02:41.921Z,172.00
2023-05-11T04:03:41.981Z,184.00
2023-05-11T04:04:41.887Z,192.00
2023-05-11T04:05:41.860Z,204.00
2023-05-11T04:06:41.865Z,220.00
2023-05-11T04:07:41.833Z,232.00
2023-05-11T04:08:41.807Z,248.00
2023-05-11T04:09:41.848Z,264.00
2023-05-11T04:10:41.794Z,280.00
2023-05-11T04:11:41.829Z,300.00
2023-05-11T04:12:41.733Z,316.00
2023-05-11T04:13:41.771Z,336.00
2023-05-11T04:14:41.758Z,352.00
2023-05-11T04:15:41.745Z,372.00
2023-05-11T04:16:41.746Z,392.00
2023-05-11T04:17:41.732Z,408.00
2023-05-11T04:18:41.770Z,424.00
2023-05-11T04:19:41.727Z,440.00
2023-05-11T04:20:41.694Z,456.00
2023-05-11T04:21:41.733Z,476.00
2023-05-11T04:22:41.696Z,500.00
2023-05-11T04:23:41.646Z,520.00
2023-05-11T04:24:41.654Z,544.00
2023-05-11T04:25:41.636Z,556.00
2023-05-11T04:26:41.643Z,560.00
2023-05-11T04:27:41.653Z,576.00
2023-05-11T04:28:41.596Z,600.00
2023-05-11T04:30:13.995Z,624.00
2023-05-11T04:30:41.605Z,660.00
2023-05-11T04:31:41.580Z,684.00
2023-05-11T04:33:14.010Z,700.00
2023-05-11T04:33:41.574Z,708.00
2023-05-11T04:34:41.601Z,720.00
2023-05-11T04:35:41.529Z,732.00
2023-05-11T04:36:41.533Z,744.00
2023-05-11T04:37:41.537Z,752.00
2023-05-11T04:38:41.501Z,760.00
2023-05-11T04:39:41.506Z,768.00
2023-05-11T04:40:41.485Z,780.00
2023-05-11T04:41:41.444Z,796.00
2023-05-11T04:42:41.485Z,812.00
2023-05-11T04:43:41.486Z,836.00
2023-05-11T04:44:41.470Z,876.00
2023-05-11T04:45:41.492Z,928.00
2023-05-11T04:46:41.493Z,964.00
2023-05-11T04:47:41.417Z,1000.00
2023-05-11T04:48:41.499Z,1048.00
2023-05-11T04:49:41.402Z,1064.00
2023-05-11T04:50:41.382Z,1056.00
2023-05-11T04:51:41.373Z,1044.00
2023-05-11T04:52:41.444Z,1036.00
2023-05-11T04:53:42.454Z,1036.00
2023-05-11T04:54:41.511Z,1028.00
2023-05-11T04:55:42.402Z,1024.00
2023-05-11T04:56:41.299Z,1020.00
2023-05-11T04:57:41.416Z,1028.00
2023-05-11T04:58:41.386Z,1056.00
2023-05-11T04:59:41.360Z,1092.00
2023-05-11T05:00:41.372Z,1132.00
2023-05-11T05:01:41.412Z,1168.00
2023-05-11T05:02:41.290Z,1204.00
2023-05-11T05:03:41.341Z,1240.00
2023-05-11T05:04:41.219Z,1300.00
2023-05-11T05:05:41.256Z,1392.00
2023-05-11T05:06:41.226Z,1492.00
2023-05-11T05:07:41.198Z,1572.00
2023-05-11T05:08:41.220Z,1644.00
2023-05-11T05:09:42.500Z,1724.00
2023-05-11T05:10:41.137Z,1812.00
2023-05-11T05:11:41.146Z,1896.00
2023-05-11T05:12:41.181Z,1956.00
2023-05-11T05:13:41.185Z,1964.00
2023-05-11T05:14:41.099Z,1964.00
2023-05-11T05:15:41.139Z,1972.00
2023-05-11T05:16:41.102Z,1960.00
2023-05-11T05:17:41.130Z,1964.00
2023-05-11T05:18:41.164Z,1992.00
2023-05-11T05:19:41.115Z,2028.00
2023-05-11T05:20:41.034Z,2036.00
2023-05-11T05:21:41.022Z,2032.00
2023-05-11T05:22:41.042Z,2036.00
2023-05-11T05:23:41.056Z,2036.00
2023-05-11T05:24:40.996Z,2036.00
2023-05-11T05:25:41.002Z,2056.00
2023-05-11T05:26:40.994Z,2076.00
2023-05-11T05:27:40.993Z,2100.00
2023-05-11T05:28:41.008Z,2132.00
2023-05-11T05:29:40.996Z,2176.00
2023-05-11T05:30:40.955Z,2240.00
2023-05-11T05:31:41.958Z,2308.00
2023-05-11T05:32:40.971Z,2360.00
2023-05-11T05:33:40.902Z,2396.00
2023-05-11T05:34:40.947Z,2424.00
2023-05-11T05:35:40.871Z,2448.00
2023-05-11T05:36:40.894Z,2480.00
2023-05-11T05:37:40.895Z,2512.00
2023-05-11T05:38:40.885Z,2540.00
2023-05-11T05:39:40.858Z,2592.00
2023-05-11T05:40:40.842Z,2672.00
2023-05-11T05:41:40.809Z,2740.00
2023-05-11T05:42:40.830Z,2772.00
2023-05-11T05:43:40.857Z,2804.00
2023-05-11T05:44:40.813Z,2828.00
2023-05-11T05:45:40.789Z,2828.00
2023-05-11T05:46:40.875Z,2860.00
2023-05-11T05:47:40.798Z,2920.00
2023-05-11T05:48:40.735Z,3024.00
2023-05-11T05:49:41.208Z,3152.00
2023-05-11T05:52:42.667Z,3280.00
2023-05-11T05:53:43.857Z,3244.00
2023-05-11T05:54:43.807Z,3284.00
2023-05-11T05:55:43.788Z,3292.00
2023-05-11T05:56:43.775Z,3236.00
2023-05-11T05:57:43.809Z,3232.00
2023-05-11T05:58:43.774Z,3264.00
2023-05-11T05:59:43.743Z,3252.00
2023-05-11T06:00:43.762Z,3232.00
2023-05-11T06:01:43.719Z,3212.00
2023-05-11T06:02:43.784Z,3156.00
2023-05-11T06:03:43.868Z,3100.00
2023-05-11T06:04:43.871Z,3104.00
2023-05-11T06:05:43.681Z,3168.00
2023-05-11T06:06:43.695Z,3232.00
2023-05-11T06:07:46.633Z,3300.00
2023-05-11T06:08:44.650Z,3424.00
2023-05-11T06:09:43.740Z,3684.00
2023-05-11T06:10:43.679Z,3904.00
2023-05-11T06:11:43.648Z,3916.00
2023-05-11T06:12:43.666Z,3836.00
2023-05-11T06:13:44.332Z,3752.00
2023-05-11T06:14:43.598Z,3624.00
2023-05-11T06:15:43.935Z,3516.00
2023-05-11T06:16:44.703Z,3444.00
2023-05-11T06:17:43.672Z,3376.00
2023-05-11T06:18:43.587Z,3300.00
2023-05-11T06:19:43.549Z,3176.00
2023-05-11T06:20:43.526Z,3044.00
2023-05-11T06:21:43.574Z,2940.00
2023-05-11T06:22:43.555Z,2828.00
2023-05-11T06:23:43.617Z,2716.00
2023-05-11T06:24:43.514Z,2648.00
2023-05-11T06:25:43.554Z,2608.00
2023-05-11T06:26:43.458Z,2560.00
2023-05-11T06:27:44.320Z,2516.00
2023-05-11T06:28:43.475Z,2528.00
2023-05-11T06:29:43.459Z,2608.00
2023-05-11T06:30:43.484Z,2704.00
2023-05-11T06:31:43.450Z,2724.00
2023-05-11T06:32:43.514Z,2708.00
2023-05-11T06:33:43.431Z,2700.00
2023-05-11T06:34:43.428Z,2724.00
2023-05-11T06:35:43.394Z,2748.00
2023-05-11T06:36:43.361Z,2724.00
2023-05-11T06:37:43.396Z,2692.00
2023-05-11T06:38:44.739Z,2688.00
2023-05-11T06:39:43.754Z,2748.00
2023-05-11T06:40:43.785Z,2832.00
2023-05-11T06:41:43.497Z,2872.00
2023-05-11T06:42:43.540Z,2900.00
2023-05-11T06:43:43.291Z,2908.00
2023-05-11T06:44:43.414Z,2880.00
2023-05-11T06:45:43.361Z,2860.00
2023-05-11T06:46:43.241Z,2900.00
2023-05-11T06:47:43.377Z,2992.00
2023-05-11T06:48:43.311Z,3096.00
2023-05-11T06:49:43.279Z,3216.00
2023-05-11T06:50:43.234Z,3288.00
2023-05-11T06:51:43.231Z,3188.00
2023-05-11T06:52:43.188Z,3040.00
2023-05-11T06:53:43.226Z,2904.00
2023-05-11T06:54:43.215Z,2796.00
2023-05-11T06:55:43.176Z,2700.00
2023-05-11T06:56:43.172Z,2604.00
2023-05-11T06:57:43.111Z,2536.00
2023-05-11T06:58:43.151Z,2516.00
2023-05-11T06:59:43.152Z,2556.00
2023-05-11T07:00:43.212Z,2636.00
2023-05-11T07:01:43.127Z,2700.00
2023-05-11T07:02:43.147Z,2736.00
2023-05-11T07:03:43.076Z,2760.00
2023-05-11T07:04:43.157Z,2796.00
2023-05-11T07:05:43.143Z,2852.00
2023-05-11T07:06:43.208Z,2900.00
2023-05-11T07:07:43.017Z,2944.00
2023-05-11T07:08:43.057Z,2980.00
2023-05-11T07:09:43.051Z,3028.00
2023-05-11T07:10:43.005Z,3088.00
2023-05-11T07:11:42.999Z,3160.00
2023-05-11T07:12:42.950Z,3240.00
2023-05-11T07:13:42.958Z,3324.00
2023-05-11T07:14:42.915Z,3436.00
2023-05-11T07:15:42.958Z,3556.00
2023-05-11T07:16:43.061Z,3676.00
2023-05-11T07:17:43.034Z,3788.00
2023-05-11T07:18:42.967Z,3916.00
2023-05-11T07:19:43.051Z,4060.00
2023-05-11T07:20:42.912Z,4244.00
2023-05-11T07:21:42.982Z,4404.00
2023-05-11T07:22:43.147Z,4528.00
2023-05-11T07:23:42.899Z,4652.00
2023-05-11T07:24:42.907Z,4700.00
2023-05-11T07:25:42.918Z,4696.00
2023-05-11T07:26:42.873Z,4772.00
2023-05-11T07:27:42.837Z,4936.00
2023-05-11T07:28:42.806Z,5128.00
2023-05-11T07:29:42.836Z,5248.00
2023-05-11T07:30:42.844Z,5300.00
2023-05-11T07:31:43.820Z,5360.00
2023-05-11T07:32:42.824Z,5464.00
2023-05-11T07:33:42.742Z,5596.00
2023-05-11T07:34:42.776Z,5756.00
2023-05-11T07:35:42.841Z,5960.00
2023-05-11T07:36:42.808Z,6192.00
2023-05-11T07:37:42.774Z,6432.00
2023-05-11T07:38:42.838Z,6632.00
2023-05-11T07:39:42.692Z,6748.00
2023-05-11T07:40:43.426Z,6800.00
2023-05-11T07:41:42.623Z,6804.00
2023-05-11T07:42:42.671Z,6828.00
2023-05-11T07:43:42.826Z,6908.00
2023-05-11T07:44:42.667Z,7020.00
2023-05-11T07:45:42.678Z,7064.00
2023-05-11T07:46:42.701Z,7136.00
2023-05-11T07:47:42.754Z,7284.00
2023-05-11T07:48:42.614Z,7456.00
2023-05-11T07:49:43.938Z,7684.00
2023-05-11T07:50:43.812Z,7868.00
2023-05-11T07:51:42.560Z,7960.00
2023-05-11T07:52:42.582Z,7932.00
2023-05-11T07:53:43.022Z,7800.00
2023-05-11T07:54:42.636Z,7720.00
2023-05-11T07:55:42.549Z,7704.00
2023-05-11T07:56:42.499Z,7644.00
2023-05-11T07:57:42.581Z,7628.00
2023-05-11T07:58:42.480Z,7628.00
2023-05-11T07:59:42.511Z,7648.00
2023-05-11T08:00:42.548Z,7732.00
2023-05-11T08:01:42.513Z,7792.00
2023-05-11T08:02:42.539Z,7876.00
2023-05-11T08:03:42.457Z,8048.00
2023-05-11T08:04:42.420Z,8252.00
2023-05-11T08:05:43.450Z,8412.00
2023-05-11T08:06:42.408Z,8624.00
2023-05-11T08:07:42.370Z,8856.00
2023-05-11T08:08:42.414Z,9044.00
2023-05-11T08:09:42.361Z,9172.00
2023-05-11T08:10:42.384Z,9288.00
2023-05-11T08:11:42.361Z,9460.00
2023-05-11T08:12:42.335Z,9660.00
2023-05-11T08:13:42.338Z,9900.00
2023-05-11T08:14:42.267Z,10052.00
2023-05-11T08:15:42.280Z,10272.00
2023-05-11T08:16:42.376Z,10464.00
2023-05-11T08:17:42.419Z,10664.00
2023-05-11T08:18:43.285Z,10788.00
2023-05-11T08:19:42.297Z,10804.00
2023-05-11T08:20:42.222Z,10708.00
2023-05-11T08:21:42.171Z,10684.00
2023-05-11T08:22:42.297Z,10804.00
2023-05-11T08:23:45.150Z,10928.00
2023-05-11T08:24:42.228Z,10968.00
2023-05-11T08:25:42.169Z,10868.00
2023-05-11T08:26:42.192Z,10740.00
2023-05-11T08:27:42.155Z,10660.00
2023-05-11T08:28:42.187Z,10664.00
2023-05-11T08:29:42.055Z,10764.00
2023-05-11T08:30:42.143Z,10816.00
2023-05-11T08:31:42.127Z,10808.00
2023-05-11T08:33:43.295Z,10292.00
2023-05-11T08:34:42.222Z,9764.00
2023-05-11T08:35:42.210Z,9268.00
2023-05-11T08:36:42.948Z,9068.00
2023-05-11T08:37:42.073Z,9084.00
2023-05-11T08:38:42.192Z,9080.00
2023-05-11T08:39:46.661Z,9064.00
2023-05-11T08:40:44.040Z,9132.00
2023-05-11T08:41:42.044Z,9240.00
2023-05-11T08:42:41.997Z,9332.00
2023-05-11T08:44:14.454Z,9408.00
2023-05-11T08:44:42.048Z,9552.00
2023-05-11T08:45:42.047Z,9704.00
2023-05-11T08:46:41.997Z,9872.00
2023-05-11T08:47:41.905Z,10064.00
2023-05-11T08:48:42.086Z,10256.00
2023-05-11T08:49:41.947Z,10524.00
2023-05-11T08:50:41.906Z,10772.00
2023-05-11T08:51:42.467Z,10984.00
2023-05-11T08:52:41.942Z,11228.00
2023-05-11T08:53:41.824Z,11472.00
2023-05-11T08:54:41.833Z,11808.00
2023-05-11T08:55:41.816Z,12212.00
2023-05-11T08:56:41.799Z,12596.00
2023-05-11T08:57:41.780Z,13060.00
2023-05-11T08:58:41.864Z,13524.00
2023-05-11T08:59:41.768Z,13808.00
2023-05-11T09:00:41.768Z,13776.00
2023-05-11T09:01:41.735Z,13724.00
2023-05-11T09:02:41.747Z,13760.00
2023-05-11T09:03:41.705Z,13756.00
2023-05-11T09:04:41.721Z,13636.00
2023-05-11T09:05:41.886Z,13536.00
2023-05-11T09:06:41.666Z,13608.00
2023-05-11T09:07:41.668Z,13736.00
2023-05-11T09:08:41.654Z,13948.00
2023-05-11T09:09:41.653Z,14028.00
2023-05-11T09:10:41.628Z,14020.00
2023-05-11T09:11:41.626Z,13908.00
2023-05-11T09:12:41.577Z,13904.00
2023-05-11T09:13:41.589Z,13644.00
2023-05-11T09:14:41.568Z,12888.00
2023-05-11T09:15:41.595Z,12036.00
2023-05-11T09:16:41.713Z,11484.00
2023-05-11T09:17:41.634Z,11056.00
2023-05-11T09:18:42.514Z,10748.00
2023-05-11T09:19:41.553Z,10492.00
2023-05-11T09:20:41.532Z,10276.00
2023-05-11T09:21:41.502Z,10176.00
2023-05-11T09:22:41.534Z,10192.00
2023-05-11T09:23:41.496Z,10256.00
2023-05-11T09:24:41.471Z,10340.00
2023-05-11T09:25:41.474Z,10492.00
2023-05-11T09:26:41.512Z,10632.00
2023-05-11T09:27:41.690Z,10708.00
2023-05-11T09:28:46.185Z,10844.00
2023-05-11T09:29:42.456Z,11080.00
2023-05-11T09:30:41.435Z,11344.00
2023-05-11T09:31:41.438Z,11668.00
2023-05-11T09:32:41.419Z,11936.00
2023-05-11T09:33:41.396Z,12128.00
2023-05-11T09:34:43.166Z,12120.00
2023-05-11T09:35:42.368Z,12052.00
2023-05-11T09:36:41.373Z,11960.00
2023-05-11T09:37:41.330Z,11808.00
2023-05-11T09:38:41.353Z,11688.00
2023-05-11T09:39:59.270Z,11736.00
2023-05-11T09:40:43.572Z,11928.00
2023-05-11T09:41:41.286Z,12224.00
2023-05-11T09:42:41.256Z,12412.00
2023-05-11T09:43:41.266Z,12600.00
2023-05-11T09:44:41.272Z,12816.00
2023-05-11T09:45:41.296Z,12820.00
2023-05-11T09:46:41.377Z,12544.00
2023-05-11T09:47:41.390Z,12264.00
2023-05-11T09:48:41.231Z,12028.00
2023-05-11T09:49:41.868Z,11832.00
2023-05-11T09:50:41.227Z,11764.00
2023-05-11T09:51:41.191Z,11800.00
2023-05-11T09:52:41.244Z,12032.00
2023-05-11T09:53:41.259Z,12552.00
2023-05-11T09:54:41.214Z,13204.00
2023-05-11T09:55:41.162Z,13912.00
2023-05-11T09:56:41.150Z,14640.00
2023-05-11T09:57:41.275Z,15680.00
2023-05-11T09:58:41.246Z,16576.00
2023-05-11T09:59:41.195Z,17408.00
2023-05-11T10:00:41.087Z,17984.00
2023-05-11T10:01:41.167Z,18144.00
2023-05-11T10:02:41.180Z,18304.00
2023-05-11T10:03:41.170Z,18624.00
2023-05-11T10:04:41.047Z,18752.00
2023-05-11T10:05:41.057Z,18848.00
2023-05-11T10:06:41.083Z,18880.00
2023-05-11T10:07:41.031Z,18368.00
2023-05-11T10:08:41.019Z,17888.00
2023-05-11T10:09:40.998Z,17664.00
2023-05-11T10:10:40.969Z,17728.00
2023-05-11T10:11:41.006Z,17600.00
2023-05-11T10:12:41.057Z,17120.00
2023-05-11T10:13:41.010Z,16352.00
2023-05-11T10:14:41.061Z,15584.00
2023-05-11T10:15:40.931Z,14872.00
2023-05-11T10:16:41.008Z,14472.00
2023-05-11T10:17:40.998Z,13876.00
2023-05-11T10:18:41.058Z,13020.00
2023-05-11T10:19:40.892Z,12168.00
2023-05-11T10:20:41.002Z,11628.00
2023-05-11T10:21:40.859Z,11332.00
2023-05-11T10:22:40.953Z,11196.00
2023-05-11T10:23:40.842Z,11280.00
2023-05-11T10:24:40.847Z,11492.00
2023-05-11T10:25:41.839Z,11900.00
2023-05-11T10:26:40.839Z,12412.00
2023-05-11T10:27:40.876Z,13036.00
2023-05-11T10:28:40.824Z,13556.00
2023-05-11T10:29:41.825Z,14048.00
2023-05-11T10:30:40.771Z,14532.00
2023-05-11T10:31:40.810Z,15232.00
2023-05-11T10:32:40.778Z,15840.00
2023-05-11T10:33:40.713Z,16608.00
2023-05-11T10:34:40.726Z,17312.00
2023-05-11T10:35:40.783Z,17760.00
2023-05-11T10:36:40.716Z,17984.00
2023-05-11T10:37:40.761Z,17856.00
2023-05-11T10:38:40.717Z,17824.00
2023-05-11T10:39:40.661Z,17888.00
2023-05-11T10:40:40.678Z,18080.00
2023-05-11T10:41:40.710Z,18304.00
2023-05-11T10:42:40.653Z,18432.00
2023-05-11T10:43:40.669Z,18432.00
2023-05-11T10:44:40.672Z,18528.00
2023-05-11T10:45:40.657Z,18624.00
2023-05-11T10:46:40.618Z,18784.00
2023-05-11T10:47:40.586Z,18944.00
2023-05-11T10:48:40.956Z,19136.00
2023-05-11T10:49:40.532Z,19456.00
2023-05-11T10:50:43.206Z,19936.00
2023-05-11T10:51:41.548Z,20416.00
2023-05-11T10:52:40.577Z,20800.00
2023-05-11T10:53:40.540Z,20960.00
2023-05-11T10:54:40.560Z,21184.00
2023-05-11T10:55:40.508Z,21024.00
2023-05-11T10:56:40.509Z,21024.00
2023-05-11T10:57:41.362Z,21056.00
2023-05-11T10:58:40.553Z,21216.00
2023-05-11T10:59:40.457Z,21120.00
2023-05-11T11:00:40.474Z,21216.00
2023-05-11T11:01:40.456Z,21184.00
2023-05-11T11:02:40.459Z,21088.00
2023-05-11T11:03:40.457Z,20960.00
2023-05-11T11:04:40.511Z,21440.00
2023-05-11T11:05:40.384Z,21984.00
2023-05-11T11:06:40.394Z,22208.00
2023-05-11T11:07:40.392Z,22336.00
2023-05-11T11:08:40.365Z,20768.00
2023-05-11T11:09:40.467Z,19968.00
2023-05-11T11:10:40.323Z,19232.00
2023-05-11T11:11:40.326Z,18784.00
2023-05-11T11:12:40.341Z,18624.00
2023-05-11T11:13:40.358Z,18432.00
2023-05-11T11:14:40.287Z,17760.00
2023-05-11T11:15:40.294Z,16288.00
2023-05-11T11:16:40.283Z,14384.00
2023-05-11T11:17:40.269Z,13188.00
2023-05-11T11:18:40.299Z,12276.00
2023-05-11T11:19:40.240Z,11648.00
2023-05-11T11:20:40.281Z,11448.00
2023-05-11T11:21:40.259Z,11544.00
2023-05-11T11:22:40.214Z,11752.00
2023-05-11T11:23:40.209Z,12060.00
2023-05-11T11:24:40.214Z,12544.00
2023-05-11T11:25:40.226Z,13068.00
2023-05-11T11:26:40.150Z,13432.00
2023-05-11T11:27:40.119Z,13616.00
2023-05-11T11:28:40.166Z,13628.00
2023-05-11T11:29:40.125Z,13536.00
2023-05-11T11:30:40.098Z,13256.00
2023-05-11T11:31:40.188Z,12756.00
2023-05-11T11:32:40.196Z,12300.00
2023-05-11T11:33:40.112Z,12100.00
2023-05-11T11:34:41.117Z,12136.00
2023-05-11T11:35:40.118Z,12348.00
2023-05-11T11:36:40.072Z,12320.00
2023-05-11T11:37:39.990Z,11908.00
2023-05-11T11:39:12.414Z,11388.00
2023-05-11T11:39:40.127Z,11060.00
2023-05-11T11:40:50.759Z,11084.00
2023-05-11T11:41:42.010Z,11484.00
2023-05-11T11:42:39.990Z,12100.00
2023-05-11T11:43:39.975Z,12752.00
2023-05-11T11:44:40.016Z,12912.00
2023-05-11T11:45:39.978Z,12860.00
2023-05-11T11:46:39.938Z,13064.00
2023-05-11T11:47:40.476Z,13508.00
2023-05-11T11:48:39.940Z,13716.00
2023-05-11T11:49:39.942Z,13220.00
2023-05-11T11:50:39.896Z,12604.00
2023-05-11T11:51:39.933Z,12092.00
2023-05-11T11:52:39.892Z,11932.00
2023-05-11T11:53:39.869Z,11876.00
2023-05-11T11:54:39.948Z,11644.00
2023-05-11T11:55:39.876Z,11144.00
2023-05-11T11:56:39.871Z,10452.00
2023-05-11T11:57:39.824Z,9784.00
2023-05-11T11:58:39.800Z,9308.00
2023-05-11T11:59:39.800Z,9172.00
2023-05-11T12:00:39.891Z,9196.00
2023-05-11T12:01:39.824Z,9332.00
2023-05-11T12:02:39.816Z,9416.00
2023-05-11T12:03:39.893Z,9208.00
2023-05-11T12:04:39.922Z,9116.00
2023-05-11T12:05:39.784Z,9156.00
2023-05-11T12:06:39.733Z,9068.00
2023-05-11T12:07:39.713Z,8832.00
2023-05-11T12:08:40.700Z,8792.00
2023-05-11T12:09:39.757Z,8596.00
2023-05-11T12:10:39.973Z,8368.00
2023-05-11T12:11:39.745Z,8388.00
2023-05-11T12:12:39.726Z,8576.00
2023-05-11T12:13:39.678Z,8708.00
2023-05-11T12:14:39.716Z,8792.00
2023-05-11T12:15:39.811Z,8876.00
2023-05-11T12:16:39.698Z,8800.00
2023-05-11T12:17:39.688Z,8668.00
2023-05-11T12:18:39.705Z,8640.00
2023-05-11T12:19:39.603Z,8632.00
2023-05-11T12:20:39.595Z,8836.00
2023-05-11T12:21:39.541Z,9352.00
2023-05-11T12:22:39.606Z,10320.00
2023-05-11T12:23:39.572Z,11004.00
2023-05-11T12:24:39.667Z,11412.00